Time;durP1;ratioP1;P1;durP2;ratioP2;P2;SDS_P1;SDS_P2;PMS_P1;PMS_P2;Temp;Humidity;BMP_temperature;BMP_pressure;BME280_temperature;BME280_humidity;BME280_pressure;Samples;Min_cycle;Max_cycle;Signal;HPM_P1;HPM_P2
2022/08/19 00:01:52;;;;;;;19.62;15.08;;;;;;;19.27;72.17;96777.79;1641220;87;25394;-76
2022/08/19 00:04:23;;;;;;;17.37;13.93;;;;;;;19.24;72.25;96770.95;1640989;87;28310;-76
2022/08/19 00:06:50;;;;;;;15.45;13.85;;;;;;;19.17;72.15;96776.48;1640994;87;25846;-76
2022/08/19 00:09:22;;;;;;;17.05;12.90;;;;;;;19.14;72.29;96778.39;1640946;86;25828;-75
2022/08/19 00:11:49;;;;;;;15.70;13.80;;;;;;;19.13;72.33;96790.44;1641272;87;26390;-75
2022/08/19 00:14:17;;;;;;;17.35;14.13;;;;;;;19.10;72.36;96785.52;1640762;87;25822;-76
2022/08/19 00:16:47;;;;;;;17.02;13.95;;;;;;;19.10;72.39;96792.36;1641178;87;27395;-76
2022/08/19 00:19:15;;;;;;;14.75;13.13;;;;;;;19.10;72.39;96797.83;1641057;86;26015;-76
2022/08/19 00:21:43;;;;;;;14.87;13.35;;;;;;;19.05;72.42;96796.77;1640816;87;25391;-76
2022/08/19 00:24:13;;;;;;;20.50;14.43;;;;;;;19.00;72.47;96796.78;1640916;87;25832;-76
2022/08/19 00:26:41;;;;;;;15.98;14.30;;;;;;;18.96;72.61;96792.95;1641362;87;25830;-76
2022/08/19 00:29:11;;;;;;;16.30;14.53;;;;;;;18.95;72.63;96800.92;1641130;87;28301;-75
2022/08/19 00:31:38;;;;;;;20.23;14.70;;;;;;;18.94;72.62;96795.72;1641087;87;25743;-76
2022/08/19 00:34:05;;;;;;;20.72;14.87;;;;;;;18.91;72.62;96793.54;1641053;86;25780;-76
2022/08/19 00:36:32;;;;;;;16.35;14.50;;;;;;;18.89;72.68;96796.55;1641174;87;26492;-75
2022/08/19 00:39:00;;;;;;;20.80;14.38;;;;;;;18.90;72.73;96796.00;1641137;87;25982;-75
2022/08/19 00:41:27;;;;;;;17.00;14.03;;;;;;;18.89;72.73;96788.34;1641035;87;27392;-75
2022/08/19 00:44:12;;;;;;;16.57;14.65;;;;;;;18.88;72.75;96785.89;1641188;87;25811;-76
2022/08/19 00:46:43;;;;;;;17.45;15.00;;;;;;;18.82;72.64;96793.30;1598299;89;25794;-76
2022/08/19 00:49:32;;;;;;;16.20;14.47;;;;;;;18.74;72.77;96785.66;1584135;89;26040;-76
2022/08/19 00:52:09;;;;;;;19.73;14.25;;;;;;;18.70;72.94;96790.88;1634124;86;25862;-76
2022/08/19 00:54:38;;;;;;;16.27;13.03;;;;;;;18.66;72.99;96790.34;1672946;85;27399;-76
2022/08/19 00:57:12;;;;;;;15.15;13.55;;;;;;;18.63;73.15;96793.63;1672973;85;25821;-76
2022/08/19 00:59:41;;;;;;;16.17;14.43;;;;;;;18.57;73.22;96783.78;1673046;85;25807;-76
2022/08/19 01:02:08;;;;;;;19.82;14.87;;;;;;;18.48;73.41;96784.05;1673184;85;25726;-76
2022/08/19 01:04:34;;;;;;;18.65;14.50;;;;;;;18.46;73.61;96783.53;1673200;85;25422;-76
2022/08/19 01:07:02;;;;;;;21.15;15.32;;;;;;;18.47;73.76;96781.89;1672996;85;28251;-75
2022/08/19 01:09:30;;;;;;;21.68;16.67;;;;;;;18.51;73.75;96780.77;1672507;85;25823;-76
2022/08/19 01:11:56;;;;;;;23.20;16.80;;;;;;;18.53;73.69;96784.05;1672975;85;25842;-76
2022/08/19 01:14:24;;;;;;;20.88;16.00;;;;;;;18.46;73.67;96783.53;1672612;85;25772;-76
2022/08/19 01:16:54;;;;;;;19.52;16.52;;;;;;;18.40;73.82;96773.69;1672898;84;25798;-76
2022/08/19 01:19:35;;;;;;;23.77;15.38;;;;;;;18.40;73.97;96773.14;1673012;85;28001;-76
2022/08/19 01:22:13;;;;;;;24.35;16.35;;;;;;;18.42;74.02;96774.23;1669612;85;25978;-76
2022/08/19 01:24:40;;;;;;;22.42;15.78;;;;;;;18.39;73.98;96766.59;1668150;85;25834;-75
2022/08/19 01:27:09;;;;;;;20.50;15.45;;;;;;;18.35;74.05;96761.66;1672839;84;26575;-75
2022/08/19 01:29:40;;;;;;;19.12;15.28;;;;;;;18.34;74.12;96760.06;1673109;85;25750;-76
2022/08/19 01:32:11;;;;;;;20.80;14.90;;;;;;;18.35;74.17;96761.66;1672839;85;28198;-75
2022/08/19 01:34:38;;;;;;;20.17;15.40;;;;;;;18.35;74.19;96754.84;1669745;85;25770;-76
2022/08/19 01:37:11;;;;;;;18.52;15.08;;;;;;;18.36;74.14;96759.21;1673020;85;25783;-75
2022/08/19 01:39:40;;;;;;;18.82;15.03;;;;;;;18.35;74.14;96757.57;1691756;82;25690;-75
2022/08/19 01:42:11;;;;;;;21.30;15.58;;;;;;;18.32;74.11;96760.88;1701250;84;25306;-75
2022/08/19 01:44:40;;;;;;;17.45;14.65;;;;;;;18.31;74.14;96763.34;1701216;84;28223;-75
2022/08/19 01:47:09;;;;;;;17.17;14.20;;;;;;;18.31;74.06;96760.60;1700774;84;25291;-75
2022/08/19 01:49:37;;;;;;;16.30;13.53;;;;;;;18.30;74.02;96771.26;1695292;83;25819;-75
2022/08/19 01:52:05;;;;;;;16.95;13.93;;;;;;;18.29;73.94;96762.78;1714868;83;25817;-76
2022/08/19 01:54:33;;;;;;;16.75;14.13;;;;;;;18.29;73.98;96764.70;1717710;83;25922;-76
2022/08/19 01:57:11;;;;;;;16.73;14.55;;;;;;;18.26;74.02;96756.50;1717964;83;27423;-75
2022/08/19 01:59:40;;;;;;;16.30;14.38;;;;;;;18.26;74.01;96757.87;1717793;82;25838;-75
2022/08/19 02:02:08;;;;;;;16.80;15.00;;;;;;;18.23;74.02;96756.25;1717985;83;25702;-75
2022/08/19 02:04:37;;;;;;;16.32;14.38;;;;;;;18.15;74.08;96758.16;1718133;83;25700;-75
2022/08/19 02:07:04;;;;;;;16.27;14.58;;;;;;;18.12;74.15;96758.16;1718013;83;25744;-76
2022/08/19 02:09:32;;;;;;;16.12;14.45;;;;;;;18.11;74.20;96760.64;1718081;83;27350;-76
2022/08/19 02:11:59;;;;;;;18.17;14.33;;;;;;;18.10;74.16;96758.19;1717925;83;25708;-75
2022/08/19 02:14:25;;;;;;;16.60;13.93;;;;;;;18.08;74.16;96759.00;1717998;83;25747;-76
2022/08/19 02:16:52;;;;;;;16.00;13.75;;;;;;;18.05;74.18;96753.53;1717814;83;25735;-75
2022/08/19 02:19:19;;;;;;;17.17;14.28;;;;;;;18.03;74.19;96761.17;1718133;83;25731;-76
2022/08/19 02:21:46;;;;;;;17.45;14.10;;;;;;;17.95;74.17;96751.63;1718135;83;27456;-76
2022/08/19 02:24:12;;;;;;;15.60;13.90;;;;;;;17.84;74.27;96750.55;1718312;83;25710;-75
2022/08/19 02:26:39;;;;;;;16.77;14.18;;;;;;;17.80;74.45;96746.17;1718002;83;25801;-76
2022/08/19 02:29:06;;;;;;;16.52;14.05;;;;;;;17.77;74.62;96747.25;1717978;83;25688;-76
2022/08/19 02:31:33;;;;;;;19.10;14.47;;;;;;;17.78;74.70;96744.80;1717844;83;25937;-76
2022/08/19 02:34:00;;;;;;;17.70;14.95;;;;;;;17.72;74.68;96736.35;1718052;83;27457;-76
2022/08/19 02:36:27;;;;;;;18.35;14.60;;;;;;;17.61;74.83;96736.87;1717944;83;25766;-76
2022/08/19 02:38:55;;;;;;;17.40;15.55;;;;;;;17.61;75.03;96747.23;1718109;83;25746;-75
2022/08/19 02:41:26;;;;;;;18.17;14.43;;;;;;;17.62;75.17;96743.42;1718019;83;25695;-75
2022/08/19 02:43:56;;;;;;;18.20;14.23;;;;;;;17.63;75.21;96747.79;1718226;83;25821;-75
2022/08/19 02:46:26;;;;;;;20.32;14.40;;;;;;;17.63;75.22;96742.88;1718030;83;28030;-76
2022/08/19 02:48:58;;;;;;;17.40;15.60;;;;;;;17.56;75.16;96739.58;1717722;82;25804;-75
2022/08/19 02:51:35;;;;;;;17.25;15.08;;;;;;;17.58;75.34;96748.31;1717759;82;25721;-75
2022/08/19 02:54:04;;;;;;;19.02;14.58;;;;;;;17.60;75.33;96749.69;1673109;84;25807;-75
2022/08/19 02:56:31;;;;;;;18.12;15.32;;;;;;;17.61;75.38;96751.33;1673080;85;25830;-76
2022/08/19 02:58:58;;;;;;;17.48;14.80;;;;;;;17.61;75.31;96754.06;1673144;85;27384;-76
2022/08/19 03:01:29;;;;;;;18.77;14.25;;;;;;;17.62;75.26;96752.15;1673115;84;25874;-75
2022/08/19 03:03:59;;;;;;;25.70;15.20;;;;;;;17.62;75.24;96754.87;1673186;85;25786;-76
2022/08/19 03:06:27;;;;;;;18.25;14.73;;;;;;;17.61;75.24;96759.52;1673049;85;25836;-75
2022/08/19 03:08:54;;;;;;;17.87;14.00;;;;;;;17.60;75.17;96764.70;1673190;85;26318;-76
2022/08/19 03:11:25;;;;;;;19.00;14.45;;;;;;;17.59;75.18;96768.52;1673010;85;27367;-76
2022/08/19 03:13:53;;;;;;;23.67;15.10;;;;;;;17.61;75.24;96775.89;1673212;85;25878;-76
2022/08/19 03:16:22;;;;;;;18.62;14.13;;;;;;;17.61;75.29;96780.53;1673101;85;25791;-76
2022/08/19 03:18:50;;;;;;;17.00;14.30;;;;;;;17.61;75.22;96783.26;1673113;85;26460;-76
2022/08/19 03:21:21;;;;;;;17.90;14.63;;;;;;;17.60;75.24;96781.62;1673154;85;25692;-76
2022/08/19 03:23:48;;;;;;;19.05;15.28;;;;;;;17.54;75.27;96783.50;1672778;85;27577;-76
2022/08/19 03:26:14;;;;;;;20.92;15.65;;;;;;;17.47;75.45;96783.50;1673034;85;25771;-75
2022/08/19 03:28:43;;;;;;;16.77;14.93;;;;;;;17.42;75.59;96776.66;1673300;85;25927;-76
2022/08/19 03:31:13;;;;;;;18.65;14.95;;;;;;;17.39;75.68;96770.41;1673024;85;26492;-76
2022/08/19 03:33:41;;;;;;;16.80;14.90;;;;;;;17.37;75.81;96763.03;1673144;85;25794;-77
2022/08/19 03:36:19;;;;;;;20.32;14.95;;;;;;;17.30;75.84;96759.17;1673123;85;27451;-76
2022/08/19 03:38:50;;;;;;;20.45;15.75;;;;;;;17.22;76.03;96761.08;1673066;85;25726;-76
2022/08/19 03:41:21;;;;;;;18.55;16.23;;;;;;;17.14;76.22;96767.06;1673048;85;25775;-76
2022/08/19 03:43:49;;;;;;;20.13;16.57;;;;;;;17.13;76.39;96770.88;1645628;85;25853;-77
2022/08/19 03:46:21;;;;;;;20.68;16.77;;;;;;;17.14;76.50;96777.98;1645797;87;25756;-76
2022/08/19 03:48:53;;;;;;;20.45;16.02;;;;;;;17.18;76.57;96773.60;1644684;85;27514;-75
2022/08/19 03:51:24;;;;;;;19.05;15.85;;;;;;;17.22;76.53;96779.63;1642548;87;25755;-76
2022/08/19 03:53:53;;;;;;;19.30;16.65;;;;;;;17.28;76.53;96787.27;1645865;87;25764;-76
2022/08/19 03:56:20;;;;;;;17.92;15.93;;;;;;;17.29;76.53;96789.73;1645707;86;25747;-76
2022/08/19 03:58:47;;;;;;;20.08;16.35;;;;;;;17.30;76.54;96787.82;1645713;85;25775;-76
2022/08/19 04:01:18;;;;;;;22.37;18.90;;;;;;;17.33;76.46;96785.92;1645730;87;27412;-75
2022/08/19 04:03:46;;;;;;;19.65;17.52;;;;;;;17.35;76.42;96782.94;1645585;87;25775;-76
2022/08/19 04:06:21;;;;;;;19.55;17.40;;;;;;;17.37;76.36;96780.22;1645724;87;25831;-76
2022/08/19 04:08:50;;;;;;;20.62;15.35;;;;;;;17.38;76.34;96773.67;1643863;87;26353;-76
2022/08/19 04:11:25;;;;;;;18.85;15.65;;;;;;;17.41;76.33;96766.83;1645685;87;25742;-76
2022/08/19 04:13:53;;;;;;;19.45;15.72;;;;;;;17.42;76.34;96777.48;1614362;88;28186;-75
2022/08/19 04:16:22;;;;;;;18.25;16.12;;;;;;;17.40;76.41;96776.92;1614265;88;25859;-76
2022/08/19 04:18:49;;;;;;;18.23;16.07;;;;;;;17.42;76.44;96787.03;1614400;88;25881;-76
2022/08/19 04:21:23;;;;;;;18.48;16.23;;;;;;;17.44;76.49;96794.95;1614348;88;25684;-76
2022/08/19 04:23:50;;;;;;;22.13;17.37;;;;;;;17.42;76.48;96793.85;1614129;88;26059;-76
2022/08/19 04:26:21;;;;;;;19.17;16.60;;;;;;;17.43;76.54;96794.13;1614452;88;27407;-75
2022/08/19 04:28:49;;;;;;;20.77;16.82;;;;;;;17.45;76.49;96785.13;1577283;90;25965;-76
2022/08/19 04:31:28;;;;;;;21.35;17.35;;;;;;;17.47;76.53;96772.05;1577361;90;25810;-76
2022/08/19 04:33:57;;;;;;;20.72;16.57;;;;;;;17.50;76.55;96761.97;1577288;90;26306;-75
2022/08/19 04:36:29;;;;;;;17.15;15.28;;;;;;;17.52;76.64;96761.13;1577421;90;26307;-76
2022/08/19 04:39:00;;;;;;;20.15;16.65;;;;;;;17.53;76.64;96770.95;1563175;91;28211;-76
2022/08/19 04:44:13;;;;;;;19.12;15.70;;;;;;;17.57;76.80;96772.05;1534584;93;25952;-77
2022/08/19 04:46:41;;;;;;;20.90;15.38;;;;;;;17.60;76.90;96775.61;1541718;91;25773;-75
2022/08/19 04:49:08;;;;;;;19.25;15.20;;;;;;;17.63;76.85;96776.45;1542482;92;25851;-76
2022/08/19 04:51:36;;;;;;;16.48;14.83;;;;;;;17.68;76.81;96777.01;1533471;93;27509;-75
2022/08/19 04:54:04;;;;;;;16.30;14.65;;;;;;;17.72;76.76;96785.48;1533594;93;26487;-75
2022/08/19 04:56:30;;;;;;;17.32;15.20;;;;;;;17.75;76.80;96789.04;1533415;93;26589;-75
2022/08/19 04:58:57;;;;;;;20.27;15.75;;;;;;;17.77;76.79;96793.11;1533468;93;25752;-76
2022/08/19 05:01:31;;;;;;;25.30;16.20;;;;;;;17.81;76.82;96798.31;1533535;93;25740;-76
2022/08/19 05:04:04;;;;;;;19.55;16.27;;;;;;;17.84;76.96;96798.32;1509409;93;27461;-76
2022/08/19 05:06:33;;;;;;;17.05;15.05;;;;;;;17.87;77.00;96796.42;1514835;94;25805;-76
2022/08/19 05:09:05;;;;;;;16.45;14.73;;;;;;;17.90;76.99;96791.21;1514879;94;25869;-76
2022/08/19 05:14:07;;;;;;;20.32;16.05;;;;;;;18.02;77.06;96799.13;1510297;93;25893;-75
2022/08/19 05:16:35;;;;;;;22.35;16.52;;;;;;;18.07;77.00;96807.34;1525991;92;54355;-75
2022/08/19 05:24:33;;;;;;;21.55;17.05;;;;;;;18.22;76.96;96808.70;1526257;93;25787;-75
2022/08/19 05:27:02;;;;;;;22.45;17.20;;;;;;;18.28;77.05;96799.39;1537527;93;25804;-76
2022/08/19 05:29:31;;;;;;;23.77;17.40;;;;;;;18.35;77.17;96807.33;1537595;93;28360;-76
2022/08/19 05:31:58;;;;;;;19.98;17.87;;;;;;;18.41;77.14;96809.48;1537475;93;25576;-75
2022/08/19 05:34:25;;;;;;;25.08;17.55;;;;;;;18.45;77.16;96811.95;1537514;93;25917;-75
2022/08/19 05:36:57;;;;;;;19.90;17.12;;;;;;;18.49;77.19;96807.00;1559757;91;26599;-76
2022/08/19 05:39:28;;;;;;;20.92;17.27;;;;;;;18.56;77.17;96814.94;1537095;92;25841;-75
2022/08/19 05:41:59;;;;;;;19.25;17.12;;;;;;;18.62;77.26;96811.94;1521665;93;27427;-76
2022/08/19 05:44:31;;;;;;;22.33;17.97;;;;;;;18.70;77.44;96818.77;1540835;93;25870;-76
2022/08/19 05:46:59;;;;;;;22.20;17.02;;;;;;;18.78;77.48;96826.94;1528259;93;25872;-76
2022/08/19 05:49:27;;;;;;;22.00;17.55;;;;;;;18.86;77.60;96824.99;1540405;92;26475;-75
2022/08/19 05:51:55;;;;;;;17.82;15.98;;;;;;;18.93;77.54;96816.78;1530131;93;25781;-75
2022/08/19 05:54:23;;;;;;;19.95;16.85;;;;;;;19.01;77.59;96818.94;1538657;91;27516;-76
2022/08/19 05:56:52;;;;;;;22.00;17.37;;;;;;;19.10;77.67;96810.14;1530002;93;25895;-76
2022/08/19 05:59:21;;;;;;;25.90;18.60;;;;;;;19.19;77.78;96803.01;1538835;93;25834;-76
2022/08/19 06:01:50;;;;;;;21.40;17.95;;;;;;;19.29;77.76;96805.69;1564556;90;25769;-76
2022/08/19 06:04:19;;;;;;;19.60;16.70;;;;;;;19.38;77.83;96799.89;1589828;88;26316;-76
2022/08/19 06:06:49;;;;;;;19.17;17.17;;;;;;;19.45;77.81;96800.39;1590354;88;27396;-76
2022/08/19 06:09:15;;;;;;;20.68;16.73;;;;;;;19.54;77.69;96798.75;1621910;87;25753;-76
2022/08/19 06:11:47;;;;;;;20.97;17.12;;;;;;;19.63;77.69;96805.25;1627903;87;25797;-76
2022/08/19 06:14:20;;;;;;;24.00;17.73;;;;;;;19.73;77.70;96801.07;1624627;87;26556;-76
2022/08/19 06:16:47;;;;;;;24.27;16.45;;;;;;;19.86;77.55;96797.42;1637005;85;25869;-76
2022/08/19 06:19:17;;;;;;;20.37;16.48;;;;;;;19.97;77.33;96805.83;1670704;84;27407;-76
2022/08/19 06:21:47;;;;;;;21.57;16.30;;;;;;;20.06;77.13;96805.48;1612219;86;25921;-76
2022/08/19 06:24:18;;;;;;;20.30;16.35;;;;;;;20.18;76.95;96812.77;1626484;85;25868;-75
2022/08/19 06:26:48;;;;;;;25.10;17.20;;;;;;;20.29;76.87;96808.84;1611919;86;25787;-76
2022/08/19 06:29:17;;;;;;;17.75;15.85;;;;;;;20.39;76.65;96810.17;1626835;85;25953;-77
2022/08/19 06:31:49;;;;;;;17.95;15.20;;;;;;;20.51;76.49;96813.08;1612157;86;27453;-76
2022/08/19 06:34:17;;;;;;;17.73;15.05;;;;;;;20.62;76.34;96815.43;1627180;86;25786;-76
2022/08/19 06:36:49;;;;;;;20.95;15.30;;;;;;;20.71;76.00;96805.45;1646508;85;25763;-77
2022/08/19 06:39:20;;;;;;;16.75;14.65;;;;;;;20.81;75.76;96802.59;1700723;82;25847;-76
2022/08/19 06:41:50;;;;;;;19.53;15.20;;;;;;;20.91;75.55;96805.78;1639469;85;25839;-77
2022/08/19 06:44:20;;;;;;;18.10;15.25;;;;;;;21.02;75.25;96805.09;1667261;84;28172;-77
2022/08/19 06:46:47;;;;;;;22.93;14.65;;;;;;;21.11;75.03;96808.86;1667116;84;25718;-77
2022/08/19 06:49:13;;;;;;;20.43;15.43;;;;;;;21.22;74.87;96805.45;1667251;84;25293;-75
2022/08/19 06:51:43;;;;;;;20.02;15.55;;;;;;;21.35;74.83;96793.77;1666812;84;25787;-76
2022/08/19 06:54:11;;;;;;;16.10;14.50;;;;;;;21.46;74.90;96796.62;1667318;84;25878;-77
2022/08/19 06:56:38;;;;;;;18.67;13.72;;;;;;;21.67;74.85;96817.19;1667159;84;27366;-76
2022/08/19 06:59:10;;;;;;;16.23;13.55;;;;;;;21.67;74.85;96817.19;1667255;84;25773;-76
2022/08/19 07:01:45;;;;;;;17.92;14.87;;;;;;;21.78;74.42;96822.80;1594468;88;25888;-76
2022/08/19 07:04:13;;;;;;;17.62;14.05;;;;;;;21.90;74.40;96830.03;1594556;88;25885;-76
2022/08/19 07:06:40;;;;;;;17.95;15.00;;;;;;;22.03;74.14;96827.69;1594566;89;25759;-76
2022/08/19 07:09:08;;;;;;;17.60;15.23;;;;;;;22.03;73.82;96809.82;1594234;89;27469;-76
2022/08/19 07:11:35;;;;;;;18.00;15.55;;;;;;;22.40;72.87;96837.25;1594151;89;25769;-75
2022/08/19 07:14:06;;;;;;;18.52;15.40;;;;;;;22.53;73.12;96839.23;1594641;89;25853;-75
2022/08/19 07:16:32;;;;;;;19.00;15.83;;;;;;;22.53;73.12;96839.23;1594544;89;25879;-75
2022/08/19 07:18:59;;;;;;;24.75;16.32;;;;;;;22.65;72.83;96834.62;1594534;89;25845;-75
2022/08/19 07:21:28;;;;;;;21.48;17.57;;;;;;;22.78;72.63;96837.17;1594457;89;28174;-75
2022/08/19 07:23:58;;;;;;;20.68;18.40;;;;;;;22.90;72.57;96839.69;1594154;89;26093;-75
2022/08/19 07:26:31;;;;;;;18.42;15.68;;;;;;;23.03;72.34;96834.50;1594470;89;25363;-75
2022/08/19 07:29:01;;;;;;;18.02;16.00;;;;;;;23.16;72.43;96822.69;1594491;89;25686;-75
2022/08/19 07:31:28;;;;;;;17.85;16.05;;;;;;;23.30;72.75;96827.07;1594725;89;25829;-75
2022/08/19 07:33:56;;;;;;;16.97;14.98;;;;;;;23.45;72.80;96832.80;1594558;89;27397;-75
2022/08/19 07:36:32;;;;;;;17.23;15.25;;;;;;;23.58;72.73;96824.30;1594317;88;25844;-75
2022/08/19 07:39:02;;;;;;;17.67;15.05;;;;;;;23.73;72.37;96832.23;1626027;87;25855;-75
2022/08/19 07:41:31;;;;;;;16.52;14.53;;;;;;;23.91;72.44;96831.25;1648370;87;25785;-75
2022/08/19 07:44:03;;;;;;;17.40;14.43;;;;;;;24.16;72.37;96835.92;1648125;87;25924;-75
2022/08/19 07:46:30;;;;;;;17.57;14.98;;;;;;;24.44;72.06;96827.81;1619647;88;28215;-76
2022/08/19 07:48:57;;;;;;;18.02;13.78;;;;;;;24.75;71.30;96831.41;1619833;88;25714;-75
2022/08/19 07:51:24;;;;;;;16.32;13.62;;;;;;;25.08;70.76;96826.99;1619584;87;26649;-75
2022/08/19 07:53:51;;;;;;;14.00;12.50;;;;;;;25.44;70.09;96821.27;1619885;88;25844;-75
2022/08/19 07:56:20;;;;;;;17.77;13.25;;;;;;;25.71;69.20;96821.05;1620022;87;25776;-75
2022/08/19 07:58:50;;;;;;;14.90;13.40;;;;;;;26.05;68.91;96824.41;1637974;86;28325;-76
2022/08/19 08:01:22;;;;;;;15.60;12.63;;;;;;;26.44;68.53;96828.17;1681566;84;25789;-76
2022/08/19 08:09:31;;;;;;;18.00;12.95;;;;;;;27.17;66.55;96828.98;1681550;84;25824;-76
2022/08/19 08:12:06;;;;;;;13.95;12.28;;;;;;;27.46;66.20;96826.22;1694586;83;28274;-76
2022/08/19 08:14:43;;;;;;;14.53;12.50;;;;;;;27.77;65.73;96833.43;1696125;83;25832;-75
2022/08/19 08:17:10;;;;;;;15.40;11.70;;;;;;;28.02;65.10;96839.92;1696419;83;25336;-76
2022/08/19 08:19:40;;;;;;;14.85;12.00;;;;;;;28.27;64.39;96834.20;1696473;83;25693;-76
2022/08/19 08:22:07;;;;;;;13.03;11.50;;;;;;;28.52;63.30;96838.47;1696578;83;25882;-76
2022/08/19 08:24:35;;;;;;;13.53;12.13;;;;;;;28.69;62.89;96846.66;1696637;83;28181;-76
2022/08/19 08:27:03;;;;;;;15.65;11.97;;;;;;;28.91;62.52;96842.12;1696548;83;25767;-75
2022/08/19 08:29:31;;;;;;;15.08;11.57;;;;;;;29.11;62.05;96850.14;1696750;83;25807;-76
2022/08/19 08:31:58;;;;;;;13.88;11.33;;;;;;;29.38;61.33;96852.30;1696617;83;26320;-76
2022/08/19 08:34:25;;;;;;;12.95;11.43;;;;;;;29.65;60.75;96846.63;1696368;83;25806;-76
2022/08/19 08:36:51;;;;;;;13.65;10.88;;;;;;;29.98;60.50;96847.08;1696632;83;27367;-75
2022/08/19 08:39:21;;;;;;;13.98;10.28;;;;;;;30.22;59.46;96844.83;1696211;83;25284;-76
2022/08/19 08:42:12;;;;;;;13.70;11.25;;;;;;;30.50;58.85;96837.91;1696412;83;26833;-76
2022/08/19 08:45:02;;;;;;;16.32;9.80;;;;;;;30.80;58.19;96833.02;1686152;83;26711;-75
2022/08/19 08:47:34;;;;;;;10.98;9.88;;;;;;;31.11;57.43;96829.52;1658350;85;25803;-76
2022/08/19 08:50:10;;;;;;;11.00;9.53;;;;;;;31.20;56.57;96826.55;1650123;85;28229;-76
2022/08/19 08:52:48;;;;;;;11.08;9.98;;;;;;;31.43;56.18;96828.13;1611393;88;25892;-76
2022/08/19 08:55:20;;;;;;;11.38;9.23;;;;;;;31.68;56.05;96826.78;1615255;87;25831;-76
2022/08/19 08:57:55;;;;;;;15.05;9.15;;;;;;;31.98;55.25;96825.70;1615559;88;26114;-76
2022/08/19 09:00:36;;;;;;;12.85;10.23;;;;;;;32.18;53.79;96825.97;1612241;88;25905;-76
2022/08/19 09:03:06;;;;;;;12.10;9.50;;;;;;;32.39;53.27;96827.02;1580123;90;27531;-75
2022/08/19 09:06:04;;;;;;;11.43;9.85;;;;;;;32.62;52.97;96817.89;1579495;90;25838;-76
2022/08/19 09:08:42;;;;;;;12.70;10.08;;;;;;;32.85;52.24;96820.17;1574579;90;25864;-76
2022/08/19 09:11:14;;;;;;;13.32;9.93;;;;;;;33.02;51.64;96821.69;1563238;91;25856;-76
2022/08/19 09:14:04;;;;;;;12.65;10.00;;;;;;;32.99;50.75;96824.63;1565216;91;25768;-76
2022/08/19 09:16:31;;;;;;;10.63;9.58;;;;;;;33.16;50.73;96817.17;1543734;92;27487;-76
2022/08/19 09:19:02;;;;;;;14.53;10.30;;;;;;;33.31;50.13;96822.46;1543593;92;25787;-76
2022/08/19 09:21:29;;;;;;;15.53;10.60;;;;;;;33.44;49.79;96820.28;1543963;92;25939;-76
2022/08/19 09:23:57;;;;;;;11.95;10.68;;;;;;;33.44;49.82;96817.48;1549140;91;26290;-76
2022/08/19 09:26:25;;;;;;;13.90;10.18;;;;;;;33.47;49.57;96813.91;1570732;89;25389;-76
2022/08/19 09:28:54;;;;;;;12.98;10.80;;;;;;;33.49;49.50;96808.76;1570673;89;27561;-76
2022/08/19 09:31:25;;;;;;;10.98;9.40;;;;;;;33.58;49.05;96812.09;1570768;89;25327;-76
2022/08/19 09:33:52;;;;;;;12.50;11.08;;;;;;;33.69;48.60;96796.31;1580633;88;25842;-76
2022/08/19 09:36:23;;;;;;;13.78;11.85;;;;;;;33.81;48.44;96803.72;1596846;88;25813;-76
2022/08/19 09:38:50;;;;;;;16.60;11.48;;;;;;;33.88;48.19;96800.42;1597251;88;26505;-76
2022/08/19 09:41:19;;;;;;;13.80;11.60;;;;;;;33.80;48.06;96800.11;1597104;88;27463;-76
2022/08/19 09:46:23;;;;;;;12.35;10.43;;;;;;;33.85;48.10;96799.77;1592288;89;25827;-76
2022/08/19 09:48:51;;;;;;;11.85;9.93;;;;;;;33.93;47.73;96796.50;1606358;87;25826;-76
2022/08/19 09:51:26;;;;;;;12.30;9.98;;;;;;;33.93;47.19;96800.07;1638621;86;25812;-76
2022/08/19 09:53:56;;;;;;;12.85;10.03;;;;;;;33.91;46.80;96795.47;1636788;87;27587;-76
2022/08/19 09:56:23;;;;;;;11.50;9.40;;;;;;;33.95;46.63;96789.30;1636481;87;25939;-76
2022/08/19 09:58:50;;;;;;;10.13;9.10;;;;;;;34.04;46.77;96788.24;1639764;86;26735;-76
2022/08/19 10:01:22;;;;;;;12.47;9.63;;;;;;;34.05;46.43;96782.86;1634770;86;25790;-76
2022/08/19 10:03:56;;;;;;;13.83;9.80;;;;;;;34.16;46.63;96781.00;1664934;86;25875;-76
2022/08/19 10:06:29;;;;;;;12.95;9.95;;;;;;;34.31;46.72;96778.61;1665138;86;28429;-76
2022/08/19 10:08:55;;;;;;;18.15;11.18;;;;;;;34.46;46.73;96777.61;1665016;86;25580;-75
2022/08/19 10:11:21;;;;;;;18.32;11.28;;;;;;;34.61;46.08;96773.79;1665296;86;25804;-76
2022/08/19 10:13:48;;;;;;;18.35;10.95;;;;;;;34.75;45.68;96771.73;1668774;85;25809;-76
2022/08/19 10:16:19;;;;;;;16.37;10.80;;;;;;;34.89;45.10;96773.33;1670627;85;25837;-76
2022/08/19 10:18:46;;;;;;;16.40;11.33;;;;;;;35.02;44.70;96770.42;1670991;85;28162;-76
2022/08/19 10:21:23;;;;;;;17.67;11.60;;;;;;;35.17;44.30;96757.94;1670730;85;25864;-76
2022/08/19 10:23:54;;;;;;;14.90;10.20;;;;;;;35.27;43.87;96758.06;1670854;85;25735;-76
2022/08/19 10:26:28;;;;;;;13.90;9.23;;;;;;;35.35;43.49;96752.73;1671234;85;25965;-75
2022/08/19 10:28:56;;;;;;;14.30;10.08;;;;;;;35.32;43.93;96756.31;1671080;85;25743;-76
2022/08/19 10:31:28;;;;;;;11.93;9.25;;;;;;;35.41;43.84;96750.36;1671062;85;27368;-77
2022/08/19 10:33:59;;;;;;;10.58;9.28;;;;;;;35.39;43.09;96750.74;1582047;90;25783;-77
2022/08/19 10:36:35;;;;;;;13.70;9.10;;;;;;;35.33;42.68;96753.72;1582465;90;25821;-77
2022/08/19 10:39:07;;;;;;;17.00;9.35;;;;;;;35.45;43.04;96748.39;1533671;92;25715;-77
2022/08/19 10:41:37;;;;;;;9.35;8.05;;;;;;;35.59;43.29;96749.91;1523737;94;25895;-77
2022/08/19 10:44:10;;;;;;;10.08;9.18;;;;;;;35.75;43.11;96748.22;1583063;89;27645;-77
2022/08/19 10:49:11;;;;;;;13.03;8.63;;;;;;;35.88;42.23;96752.31;1485148;95;26080;-77
2022/08/19 10:56:50;;;;;;;8.93;7.53;;;;;;;36.22;41.89;96752.14;1483772;95;25747;-77
2022/08/19 10:56:55;;;;;;;11.57;7.45;;;;;;;36.35;41.46;96757.61;1479385;95;28381;-77
2022/08/19 10:59:27;;;;;;;10.58;7.62;;;;;;;36.42;40.75;96756.23;1474287;95;25740;-77
2022/08/19 11:02:00;;;;;;;8.28;7.00;;;;;;;36.50;40.40;96752.23;1472217;96;26550;-77
2022/08/19 11:04:27;;;;;;;11.40;7.28;;;;;;;36.56;39.53;96742.22;1470164;97;25815;-77
2022/08/19 11:06:53;;;;;;;10.23;7.58;;;;;;;36.56;39.94;96739.41;1472296;96;26039;-77
2022/08/19 11:09:27;;;;;;;10.95;7.35;;;;;;;36.61;40.07;96741.82;1472119;97;27508;-77
2022/08/19 11:11:54;;;;;;;10.53;7.30;;;;;;;36.49;40.35;96737.97;1475365;95;25913;-77
2022/08/19 11:14:22;;;;;;;10.10;6.95;;;;;;;36.51;40.42;96734.77;1479110;95;25859;-78
2022/08/19 11:16:50;;;;;;;8.05;7.12;;;;;;;36.52;39.64;96735.78;1483405;95;25858;-77
2022/08/19 11:19:19;;;;;;;10.43;6.62;;;;;;;36.34;38.94;96727.91;1484687;95;25856;-77
2022/08/19 11:21:49;;;;;;;10.75;6.65;;;;;;;36.39;39.16;96724.09;1485976;95;27460;-78
2022/08/19 11:24:20;;;;;;;9.45;6.60;;;;;;;36.41;39.01;96722.30;1482404;95;25815;-77
2022/08/19 11:26:50;;;;;;;8.98;6.58;;;;;;;36.39;38.81;96712.85;1438351;98;25957;-77
2022/08/19 11:29:20;;;;;;;9.43;6.78;;;;;;;36.41;38.73;96715.27;1437545;98;25880;-77
2022/08/19 11:31:49;;;;;;;10.00;7.20;;;;;;;36.46;38.84;96715.50;1502823;94;26041;-77
2022/08/19 11:34:20;;;;;;;8.60;7.25;;;;;;;36.49;39.55;96709.86;1511169;92;28154;-77
2022/08/19 11:36:49;;;;;;;12.10;7.20;;;;;;;36.46;39.44;96706.47;1511612;93;25950;-77
2022/08/19 11:39:20;;;;;;;12.25;6.70;;;;;;;36.47;39.69;96711.48;1510419;93;26038;-77
2022/08/19 11:41:46;;;;;;;9.65;6.58;;;;;;;36.47;39.25;96712.27;1511404;93;25999;-77
2022/08/19 11:44:14;;;;;;;9.40;7.10;;;;;;;36.46;39.41;96700.03;1550055;90;25811;-77
2022/08/19 11:49:11;;;;;;;7.58;6.87;;;;;;;36.26;38.89;96707.38;1521310;94;25938;-77
2022/08/19 11:51:38;;;;;;;10.23;6.75;;;;;;;36.20;39.18;96702.52;1523063;94;26099;-77
2022/08/19 11:54:06;;;;;;;7.20;6.42;;;;;;;36.23;39.31;96705.36;1543860;92;25934;-77
2022/08/19 11:56:33;;;;;;;9.48;6.87;;;;;;;36.26;39.50;96700.36;1543879;92;26149;-77
2022/08/19 11:59:01;;;;;;;10.82;6.20;;;;;;;36.21;39.24;96708.35;1543876;92;27517;-77